createdAt,value
2022-10-31T00:02:26.289Z,4.68
2022-10-31T00:04:56.765Z,5.03
2022-10-31T00:07:35.297Z,4.07
2022-10-31T00:10:25.989Z,4.30
2022-10-31T00:12:56.984Z,4.50
2022-10-31T00:15:25.420Z,4.60
2022-10-31T00:17:57.593Z,4.40
2022-10-31T00:20:28.220Z,4.47
2022-10-31T00:23:04.338Z,4.35
2022-10-31T00:25:37.365Z,4.90
2022-10-31T00:28:14.231Z,4.50
2022-10-31T00:30:47.183Z,4.40
2022-10-31T00:33:22.933Z,4.40
2022-10-31T00:35:57.662Z,4.28
2022-10-31T00:38:40.177Z,4.15
2022-10-31T00:41:12.304Z,4.00
2022-10-31T00:43:44.176Z,4.10
2022-10-31T00:49:13.756Z,3.80
2022-10-31T00:51:48.400Z,3.47
2022-10-31T00:54:21.142Z,3.67
2022-10-31T00:56:52.422Z,4.40
2022-10-31T00:59:28.546Z,3.65
2022-10-31T01:02:02.416Z,4.22
2022-10-31T01:04:33.545Z,3.15
2022-10-31T01:07:21.533Z,3.10
2022-10-31T01:09:52.851Z,3.25
2022-10-31T01:12:27.403Z,3.75
2022-10-31T01:14:57.488Z,3.50
2022-10-31T01:17:27.797Z,3.63
2022-10-31T01:19:57.940Z,3.70
2022-10-31T01:22:28.370Z,3.40
2022-10-31T01:24:56.865Z,3.00
2022-10-31T01:27:27.887Z,3.00
2022-10-31T01:30:17.862Z,3.63
2022-10-31T01:32:49.427Z,4.30
2022-10-31T01:35:37.558Z,3.28
2022-10-31T01:38:25.207Z,4.63
2022-10-31T01:40:54.456Z,3.88
2022-10-31T01:43:40.486Z,5.97
2022-10-31T01:48:55.261Z,7.30
2022-10-31T01:51:40.633Z,6.05
2022-10-31T02:00:01.982Z,4.50
2022-10-31T02:02:33.538Z,4.35
2022-10-31T02:05:04.181Z,4.38
2022-10-31T02:07:49.921Z,5.22
2022-10-31T02:13:12.139Z,16.08
2022-10-31T02:15:52.696Z,11.95
2022-10-31T02:18:38.398Z,12.10
2022-10-31T02:21:17.856Z,9.93
2022-10-31T02:24:29.326Z,8.43
2022-10-31T02:30:17.641Z,6.30
2022-10-31T02:33:12.311Z,5.78
2022-10-31T02:35:50.688Z,5.00
2022-10-31T02:38:43.602Z,5.22
2022-10-31T02:41:37.268Z,4.32
2022-10-31T02:57:47.334Z,3.45
2022-10-31T03:04:42.705Z,4.20
2022-10-31T03:21:26.165Z,5.32
2022-10-31T03:24:00.011Z,5.03
2022-10-31T03:29:51.282Z,6.28
2022-10-31T03:32:25.263Z,4.63
2022-10-31T03:35:09.297Z,3.20
2022-10-31T03:38:44.697Z,6.82
2022-10-31T03:41:33.736Z,6.22
2022-10-31T03:47:56.302Z,5.18
2022-10-31T06:32:32.158Z,4.43
2022-10-31T06:38:30.122Z,2.72
2022-10-31T06:44:40.054Z,6.75
2022-10-31T06:48:14.945Z,8.82
2022-10-31T07:17:34.612Z,4.13
2022-10-31T08:06:56.142Z,5.40
2022-10-31T08:16:30.381Z,5.22
2022-10-31T08:19:03.561Z,4.05
2022-10-31T08:21:32.115Z,4.43
2022-10-31T08:24:03.271Z,4.38
2022-10-31T08:26:34.264Z,4.53
2022-10-31T08:29:03.864Z,5.10
2022-10-31T08:31:36.552Z,4.75
2022-10-31T08:34:36.555Z,4.65
2022-10-31T08:37:04.537Z,5.65
2022-10-31T08:39:32.437Z,5.07
2022-10-31T08:42:00.309Z,5.32
2022-10-31T08:44:29.599Z,5.10
2022-10-31T08:46:57.398Z,4.53
2022-10-31T08:49:26.330Z,5.15
2022-10-31T08:52:14.175Z,4.50
2022-10-31T08:54:42.312Z,4.82
2022-10-31T08:57:10.276Z,4.63
2022-10-31T08:59:50.644Z,4.78
2022-10-31T09:02:21.048Z,5.10
2022-10-31T09:05:11.175Z,5.03
2022-10-31T09:07:41.068Z,4.80
2022-10-31T09:13:28.900Z,4.80
2022-10-31T09:16:35.160Z,4.78
2022-10-31T09:19:11.687Z,4.82
2022-10-31T09:21:47.713Z,5.18
2022-10-31T09:24:25.145Z,4.97
2022-10-31T09:26:54.697Z,4.70
2022-10-31T09:29:33.520Z,5.97
2022-10-31T09:36:03.876Z,5.32
2022-10-31T09:39:17.226Z,4.65
2022-10-31T09:45:11.856Z,5.40
2022-10-31T10:23:00.545Z,5.68
2022-10-31T10:33:36.444Z,6.10
2022-10-31T11:35:13.694Z,6.65
2022-10-31T11:37:51.844Z,6.90
2022-10-31T11:44:31.589Z,6.28
2022-10-31T11:47:06.991Z,6.80
2022-10-31T11:53:31.112Z,6.43
2022-10-31T11:56:08.263Z,6.43
2022-10-31T11:58:38.130Z,7.30
2022-10-31T12:02:07.016Z,7.10
2022-10-31T12:20:22.496Z,7.80
2022-10-31T12:57:51.953Z,6.82
2022-10-31T13:08:49.121Z,6.30
2022-10-31T13:27:31.241Z,5.78
2022-10-31T13:38:09.812Z,6.60
2022-10-31T13:44:47.451Z,5.50
2022-10-31T13:50:35.258Z,5.57
2022-10-31T14:07:12.724Z,4.70
2022-10-31T14:10:01.387Z,5.30
2022-10-31T14:24:22.137Z,5.53
2022-10-31T14:30:53.698Z,5.20
2022-10-31T14:34:36.396Z,5.25
2022-10-31T14:40:51.432Z,4.80
2022-10-31T14:43:44.582Z,5.03
2022-10-31T14:49:30.092Z,5.47
2022-10-31T14:52:15.753Z,4.88
2022-10-31T14:54:55.824Z,5.45
2022-10-31T14:57:27.468Z,5.13
2022-10-31T15:00:14.150Z,5.00
2022-10-31T15:06:22.429Z,5.63
2022-10-31T15:12:43.095Z,5.97
2022-10-31T15:15:16.500Z,6.07
2022-10-31T15:17:51.552Z,6.90
2022-10-31T15:20:22.804Z,6.15
2022-10-31T15:22:52.695Z,6.13
2022-10-31T15:28:36.554Z,6.15
2022-10-31T15:31:06.196Z,6.13
2022-10-31T16:22:38.489Z,5.07
2022-10-31T16:28:39.678Z,5.25
2022-10-31T16:35:25.566Z,8.00
2022-10-31T16:37:59.102Z,7.75
2022-10-31T16:40:32.726Z,7.05
2022-10-31T16:43:04.402Z,6.63
2022-10-31T16:57:52.556Z,6.97
2022-10-31T17:00:24.230Z,7.18
2022-10-31T17:13:53.115Z,6.43
2022-10-31T17:16:33.501Z,6.50
2022-10-31T17:19:48.098Z,6.43
2022-10-31T17:26:04.087Z,6.95
2022-10-31T17:32:28.492Z,9.30
2022-10-31T17:38:30.254Z,8.75
2022-10-31T17:45:04.313Z,6.55
2022-10-31T17:48:17.036Z,9.50
2022-10-31T17:50:51.224Z,7.30
2022-10-31T17:53:40.885Z,7.95
2022-10-31T17:59:57.640Z,7.90
2022-10-31T18:02:29.748Z,8.45
2022-10-31T18:04:58.847Z,10.75
2022-10-31T18:07:49.088Z,12.02
2022-10-31T18:10:20.301Z,8.27
2022-10-31T18:12:53.596Z,8.23
2022-10-31T18:15:21.571Z,8.30
2022-10-31T18:18:12.065Z,8.38
2022-10-31T18:21:02.066Z,10.02
2022-10-31T18:23:43.484Z,9.90
2022-10-31T18:26:14.584Z,9.48
2022-10-31T18:28:57.765Z,9.80
2022-10-31T18:32:06.778Z,12.73
2022-10-31T18:34:47.110Z,11.80
2022-10-31T18:37:15.189Z,10.07
2022-10-31T18:46:53.556Z,8.93
2022-10-31T19:43:30.714Z,11.30
2022-10-31T19:46:01.130Z,12.27
2022-10-31T19:48:35.763Z,11.45
2022-10-31T20:13:26.084Z,14.43
2022-10-31T20:31:13.325Z,14.25
2022-10-31T20:33:51.229Z,13.40
2022-10-31T20:37:11.026Z,11.75
